sensor_id;sensor_type;location;lat;lon;timestamp;temperature;humidity
18412;DHT22;27097;51.738;19.472;2023-07-22T00:00:57;26.40;59.60
18412;DHT22;27097;51.738;19.472;2023-07-22T00:03:23;26.40;59.70
18412;DHT22;27097;51.738;19.472;2023-07-22T00:06:02;26.40;59.60
18412;DHT22;27097;51.738;19.472;2023-07-22T00:08:29;26.40;59.60
18412;DHT22;27097;51.738;19.472;2023-07-22T00:10:56;26.40;59.50
18412;DHT22;27097;51.738;19.472;2023-07-22T00:13:23;26.40;59.40
18412;DHT22;27097;51.738;19.472;2023-07-22T00:15:52;26.40;59.40
18412;DHT22;27097;51.738;19.472;2023-07-22T00:18:20;26.40;59.30
18412;DHT22;27097;51.738;19.472;2023-07-22T00:20:47;26.40;59.50
18412;DHT22;27097;51.738;19.472;2023-07-22T00:23:17;26.40;59.30
18412;DHT22;27097;51.738;19.472;2023-07-22T00:25:45;26.40;59.30
18412;DHT22;27097;51.738;19.472;2023-07-22T00:28:12;26.40;59.30
18412;DHT22;27097;51.738;19.472;2023-07-22T00:30:39;26.40;58.90
18412;DHT22;27097;51.738;19.472;2023-07-22T00:33:05;26.30;59.50
18412;DHT22;27097;51.738;19.472;2023-07-22T00:35:34;26.30;58.70
18412;DHT22;27097;51.738;19.472;2023-07-22T00:38:01;26.30;58.60
18412;DHT22;27097;51.738;19.472;2023-07-22T00:40:28;26.20;58.60
18412;DHT22;27097;51.738;19.472;2023-07-22T00:42:57;26.20;58.60
18412;DHT22;27097;51.738;19.472;2023-07-22T00:45:24;26.20;58.80
18412;DHT22;27097;51.738;19.472;2023-07-22T00:47:51;26.10;59.10
18412;DHT22;27097;51.738;19.472;2023-07-22T00:50:18;26.10;59.20
18412;DHT22;27097;51.738;19.472;2023-07-22T00:52:47;26.10;59.30
18412;DHT22;27097;51.738;19.472;2023-07-22T00:55:13;26.10;59.70
18412;DHT22;27097;51.738;19.472;2023-07-22T00:57:40;26.10;59.80
18412;DHT22;27097;51.738;19.472;2023-07-22T01:00:08;26.10;59.30
18412;DHT22;27097;51.738;19.472;2023-07-22T01:02:37;26.10;59.70
18412;DHT22;27097;51.738;19.472;2023-07-22T01:05:04;26.10;59.80
18412;DHT22;27097;51.738;19.472;2023-07-22T01:07:32;26.10;59.70
18412;DHT22;27097;51.738;19.472;2023-07-22T01:10:00;26.20;59.90
18412;DHT22;27097;51.738;19.472;2023-07-22T01:12:27;26.20;59.90
18412;DHT22;27097;51.738;19.472;2023-07-22T01:14:54;26.20;59.80
18412;DHT22;27097;51.738;19.472;2023-07-22T01:17:21;26.20;59.90
18412;DHT22;27097;51.738;19.472;2023-07-22T01:19:48;26.20;59.80
18412;DHT22;27097;51.738;19.472;2023-07-22T01:22:16;26.20;59.80
18412;DHT22;27097;51.738;19.472;2023-07-22T01:24:45;26.20;60.00
18412;DHT22;27097;51.738;19.472;2023-07-22T01:27:12;26.20;60.00
18412;DHT22;27097;51.738;19.472;2023-07-22T01:29:39;26.20;60.10
18412;DHT22;27097;51.738;19.472;2023-07-22T01:32:07;26.20;60.30
18412;DHT22;27097;51.738;19.472;2023-07-22T01:34:34;26.20;60.10
18412;DHT22;27097;51.738;19.472;2023-07-22T01:37:01;26.30;60.20
18412;DHT22;27097;51.738;19.472;2023-07-22T01:39:28;26.30;60.30
18412;DHT22;27097;51.738;19.472;2023-07-22T01:41:56;26.30;60.30
18412;DHT22;27097;51.738;19.472;2023-07-22T01:44:23;26.30;60.30
18412;DHT22;27097;51.738;19.472;2023-07-22T01:46:50;26.30;60.20
18412;DHT22;27097;51.738;19.472;2023-07-22T01:49:17;26.30;59.70
18412;DHT22;27097;51.738;19.472;2023-07-22T01:51:44;26.30;60.00
18412;DHT22;27097;51.738;19.472;2023-07-22T01:54:11;26.30;60.00
18412;DHT22;27097;51.738;19.472;2023-07-22T01:56:39;26.30;60.10
18412;DHT22;27097;51.738;19.472;2023-07-22T01:59:07;26.30;60.20
18412;DHT22;27097;51.738;19.472;2023-07-22T02:01:35;26.30;60.30
18412;DHT22;27097;51.738;19.472;2023-07-22T02:04:02;26.30;60.30
18412;DHT22;27097;51.738;19.472;2023-07-22T02:06:28;26.30;60.30
18412;DHT22;27097;51.738;19.472;2023-07-22T02:08:55;26.30;59.80
18412;DHT22;27097;51.738;19.472;2023-07-22T02:11:22;26.30;59.10
18412;DHT22;27097;51.738;19.472;2023-07-22T02:13:49;26.30;59.40
18412;DHT22;27097;51.738;19.472;2023-07-22T02:16:17;26.20;59.70
18412;DHT22;27097;51.738;19.472;2023-07-22T02:18:44;26.20;60.10
18412;DHT22;27097;51.738;19.472;2023-07-22T02:21:11;26.20;59.50
18412;DHT22;27097;51.738;19.472;2023-07-22T02:23:38;26.20;59.40
18412;DHT22;27097;51.738;19.472;2023-07-22T02:26:04;26.20;59.30
18412;DHT22;27097;51.738;19.472;2023-07-22T02:28:32;26.20;59.40
18412;DHT22;27097;51.738;19.472;2023-07-22T02:31:01;26.10;59.70
18412;DHT22;27097;51.738;19.472;2023-07-22T02:33:33;26.10;59.70
18412;DHT22;27097;51.738;19.472;2023-07-22T02:36:00;26.10;59.80
18412;DHT22;27097;51.738;19.472;2023-07-22T02:38:27;26.00;60.70
18412;DHT22;27097;51.738;19.472;2023-07-22T02:40:53;26.00;60.50
18412;DHT22;27097;51.738;19.472;2023-07-22T02:43:21;26.00;60.70
18412;DHT22;27097;51.738;19.472;2023-07-22T02:45:47;26.10;60.90
18412;DHT22;27097;51.738;19.472;2023-07-22T02:48:14;26.10;61.70
18412;DHT22;27097;51.738;19.472;2023-07-22T02:50:42;26.10;60.90
18412;DHT22;27097;51.738;19.472;2023-07-22T02:53:09;26.10;60.90
18412;DHT22;27097;51.738;19.472;2023-07-22T02:55:36;26.10;60.50
18412;DHT22;27097;51.738;19.472;2023-07-22T02:58:03;26.20;60.70
18412;DHT22;27097;51.738;19.472;2023-07-22T03:00:30;26.20;60.80
18412;DHT22;27097;51.738;19.472;2023-07-22T03:02:57;26.20;60.80
18412;DHT22;27097;51.738;19.472;2023-07-22T03:05:26;26.20;60.50
18412;DHT22;27097;51.738;19.472;2023-07-22T03:07:55;26.20;61.40
18412;DHT22;27097;51.738;19.472;2023-07-22T03:10:22;26.20;60.40
18412;DHT22;27097;51.738;19.472;2023-07-22T03:12:51;26.20;60.40
18412;DHT22;27097;51.738;19.472;2023-07-22T03:15:21;26.20;60.40
18412;DHT22;27097;51.738;19.472;2023-07-22T03:17:48;26.20;60.40
18412;DHT22;27097;51.738;19.472;2023-07-22T03:20:15;26.20;60.30
18412;DHT22;27097;51.738;19.472;2023-07-22T03:22:44;26.20;60.40
18412;DHT22;27097;51.738;19.472;2023-07-22T03:25:14;26.20;60.30
18412;DHT22;27097;51.738;19.472;2023-07-22T03:27:43;26.20;60.00
18412;DHT22;27097;51.738;19.472;2023-07-22T03:30:11;26.20;60.10
18412;DHT22;27097;51.738;19.472;2023-07-22T03:32:40;26.20;59.40
18412;DHT22;27097;51.738;19.472;2023-07-22T03:35:08;26.20;59.40
18412;DHT22;27097;51.738;19.472;2023-07-22T03:37:36;26.20;59.90
18412;DHT22;27097;51.738;19.472;2023-07-22T03:40:03;26.20;60.90
18412;DHT22;27097;51.738;19.472;2023-07-22T03:42:33;26.20;60.00
18412;DHT22;27097;51.738;19.472;2023-07-22T03:45:00;26.20;60.00
18412;DHT22;27097;51.738;19.472;2023-07-22T03:47:27;26.20;59.70
18412;DHT22;27097;51.738;19.472;2023-07-22T03:49:55;26.20;60.00
18412;DHT22;27097;51.738;19.472;2023-07-22T03:52:22;26.20;60.00
18412;DHT22;27097;51.738;19.472;2023-07-22T03:54:49;26.20;60.00
18412;DHT22;27097;51.738;19.472;2023-07-22T03:57:16;26.30;60.00
18412;DHT22;27097;51.738;19.472;2023-07-22T03:59:44;26.20;60.00
18412;DHT22;27097;51.738;19.472;2023-07-22T04:02:11;26.20;59.70
18412;DHT22;27097;51.738;19.472;2023-07-22T04:04:38;26.20;59.20
18412;DHT22;27097;51.738;19.472;2023-07-22T04:07:05;26.30;59.80
18412;DHT22;27097;51.738;19.472;2023-07-22T04:09:33;26.30;59.90
18412;DHT22;27097;51.738;19.472;2023-07-22T04:12:01;26.30;59.60
18412;DHT22;27097;51.738;19.472;2023-07-22T04:14:28;26.30;59.90
18412;DHT22;27097;51.738;19.472;2023-07-22T04:16:56;26.30;59.70
18412;DHT22;27097;51.738;19.472;2023-07-22T04:19:23;26.30;59.30
18412;DHT22;27097;51.738;19.472;2023-07-22T04:21:50;26.30;59.10
18412;DHT22;27097;51.738;19.472;2023-07-22T04:24:17;26.30;59.10
18412;DHT22;27097;51.738;19.472;2023-07-22T04:26:44;26.30;59.50
18412;DHT22;27097;51.738;19.472;2023-07-22T04:29:11;26.30;59.60
18412;DHT22;27097;51.738;19.472;2023-07-22T04:31:38;26.30;59.70
18412;DHT22;27097;51.738;19.472;2023-07-22T04:34:06;26.30;59.90
18412;DHT22;27097;51.738;19.472;2023-07-22T04:36:33;26.30;59.80
18412;DHT22;27097;51.738;19.472;2023-07-22T04:39:00;26.30;59.80
18412;DHT22;27097;51.738;19.472;2023-07-22T04:41:28;26.30;59.60
18412;DHT22;27097;51.738;19.472;2023-07-22T04:43:55;26.30;59.70
18412;DHT22;27097;51.738;19.472;2023-07-22T04:46:23;26.30;59.70
18412;DHT22;27097;51.738;19.472;2023-07-22T04:48:53;26.30;59.80
18412;DHT22;27097;51.738;19.472;2023-07-22T04:51:21;26.30;59.60
18412;DHT22;27097;51.738;19.472;2023-07-22T04:53:48;26.30;58.70
18412;DHT22;27097;51.738;19.472;2023-07-22T04:56:14;26.30;59.30
18412;DHT22;27097;51.738;19.472;2023-07-22T04:58:41;26.30;59.50
18412;DHT22;27097;51.738;19.472;2023-07-22T05:01:09;26.40;59.30
18412;DHT22;27097;51.738;19.472;2023-07-22T05:03:36;26.40;59.50
18412;DHT22;27097;51.738;19.472;2023-07-22T05:06:03;26.40;59.20
18412;DHT22;27097;51.738;19.472;2023-07-22T05:08:31;26.40;59.20
18412;DHT22;27097;51.738;19.472;2023-07-22T05:10:58;26.40;58.80
18412;DHT22;27097;51.738;19.472;2023-07-22T05:13:24;26.50;58.20
18412;DHT22;27097;51.738;19.472;2023-07-22T05:15:51;26.50;59.00
18412;DHT22;27097;51.738;19.472;2023-07-22T05:18:18;26.40;59.30
18412;DHT22;27097;51.738;19.472;2023-07-22T05:20:45;26.40;59.40
18412;DHT22;27097;51.738;19.472;2023-07-22T05:23:12;26.50;59.20
18412;DHT22;27097;51.738;19.472;2023-07-22T05:25:40;26.50;59.30
18412;DHT22;27097;51.738;19.472;2023-07-22T05:28:06;26.50;59.20
18412;DHT22;27097;51.738;19.472;2023-07-22T05:30:33;26.50;59.30
18412;DHT22;27097;51.738;19.472;2023-07-22T05:33:00;26.50;58.90
18412;DHT22;27097;51.738;19.472;2023-07-22T05:35:27;26.60;59.10
18412;DHT22;27097;51.738;19.472;2023-07-22T05:37:54;26.60;58.70
18412;DHT22;27097;51.738;19.472;2023-07-22T05:40:21;26.60;58.40
18412;DHT22;27097;51.738;19.472;2023-07-22T05:42:49;26.60;58.30
18412;DHT22;27097;51.738;19.472;2023-07-22T05:45:16;26.60;58.60
18412;DHT22;27097;51.738;19.472;2023-07-22T05:47:43;26.70;58.30
18412;DHT22;27097;51.738;19.472;2023-07-22T05:50:09;26.70;58.70
18412;DHT22;27097;51.738;19.472;2023-07-22T05:52:36;26.70;58.40
18412;DHT22;27097;51.738;19.472;2023-07-22T05:55:04;26.70;58.10
18412;DHT22;27097;51.738;19.472;2023-07-22T05:57:31;26.80;57.40
18412;DHT22;27097;51.738;19.472;2023-07-22T05:59:59;26.80;57.50
18412;DHT22;27097;51.738;19.472;2023-07-22T06:02:26;26.80;57.60
18412;DHT22;27097;51.738;19.472;2023-07-22T06:04:53;26.80;57.40
18412;DHT22;27097;51.738;19.472;2023-07-22T06:07:19;26.90;57.80
18412;DHT22;27097;51.738;19.472;2023-07-22T06:09:46;26.90;57.30
18412;DHT22;27097;51.738;19.472;2023-07-22T06:12:13;26.90;57.20
18412;DHT22;27097;51.738;19.472;2023-07-22T06:14:40;27.00;57.50
18412;DHT22;27097;51.738;19.472;2023-07-22T06:17:09;27.00;57.30
18412;DHT22;27097;51.738;19.472;2023-07-22T06:19:35;27.10;57.00
18412;DHT22;27097;51.738;19.472;2023-07-22T06:22:02;27.10;57.00
18412;DHT22;27097;51.738;19.472;2023-07-22T06:24:29;27.10;57.00
18412;DHT22;27097;51.738;19.472;2023-07-22T06:26:56;27.20;56.70
18412;DHT22;27097;51.738;19.472;2023-07-22T06:29:23;27.20;56.50
18412;DHT22;27097;51.738;19.472;2023-07-22T06:31:50;27.20;57.00
18412;DHT22;27097;51.738;19.472;2023-07-22T06:34:18;27.30;56.40
18412;DHT22;27097;51.738;19.472;2023-07-22T06:36:45;27.30;56.50
18412;DHT22;27097;51.738;19.472;2023-07-22T06:39:12;27.40;56.50
18412;DHT22;27097;51.738;19.472;2023-07-22T06:41:38;27.40;56.30
18412;DHT22;27097;51.738;19.472;2023-07-22T06:44:05;27.40;55.60
18412;DHT22;27097;51.738;19.472;2023-07-22T06:46:32;27.40;55.70
18412;DHT22;27097;51.738;19.472;2023-07-22T06:48:59;27.40;56.20
18412;DHT22;27097;51.738;19.472;2023-07-22T06:51:27;27.40;55.60
18412;DHT22;27097;51.738;19.472;2023-07-22T06:53:54;27.40;55.60
18412;DHT22;27097;51.738;19.472;2023-07-22T06:56:21;27.50;55.20
18412;DHT22;27097;51.738;19.472;2023-07-22T06:58:48;27.50;55.20
18412;DHT22;27097;51.738;19.472;2023-07-22T07:01:16;27.50;55.70
18412;DHT22;27097;51.738;19.472;2023-07-22T07:03:43;27.50;55.70
18412;DHT22;27097;51.738;19.472;2023-07-22T07:06:11;27.60;55.80
18412;DHT22;27097;51.738;19.472;2023-07-22T07:08:39;27.60;55.10
18412;DHT22;27097;51.738;19.472;2023-07-22T07:11:06;27.60;55.20
18412;DHT22;27097;51.738;19.472;2023-07-22T07:13:33;27.60;55.40
18412;DHT22;27097;51.738;19.472;2023-07-22T07:16:21;27.70;55.40
18412;DHT22;27097;51.738;19.472;2023-07-22T07:18:48;27.70;55.70
18412;DHT22;27097;51.738;19.472;2023-07-22T07:21:15;27.70;55.40
18412;DHT22;27097;51.738;19.472;2023-07-22T07:23:43;27.70;55.50
18412;DHT22;27097;51.738;19.472;2023-07-22T07:26:10;27.70;55.50
18412;DHT22;27097;51.738;19.472;2023-07-22T07:28:37;27.80;54.40
18412;DHT22;27097;51.738;19.472;2023-07-22T07:31:04;27.80;53.60
18412;DHT22;27097;51.738;19.472;2023-07-22T07:33:31;27.90;53.80
18412;DHT22;27097;51.738;19.472;2023-07-22T07:35:57;27.90;52.20
18412;DHT22;27097;51.738;19.472;2023-07-22T07:38:24;28.00;53.70
18412;DHT22;27097;51.738;19.472;2023-07-22T07:40:55;28.00;53.60
18412;DHT22;27097;51.738;19.472;2023-07-22T07:43:22;28.00;53.70
18412;DHT22;27097;51.738;19.472;2023-07-22T07:45:49;28.00;52.70
18412;DHT22;27097;51.738;19.472;2023-07-22T07:48:16;28.00;52.90
18412;DHT22;27097;51.738;19.472;2023-07-22T07:50:43;28.00;53.00
18412;DHT22;27097;51.738;19.472;2023-07-22T07:53:10;28.00;52.30
18412;DHT22;27097;51.738;19.472;2023-07-22T07:55:37;28.00;52.90
18412;DHT22;27097;51.738;19.472;2023-07-22T07:58:05;27.90;52.80
18412;DHT22;27097;51.738;19.472;2023-07-22T08:00:32;28.00;52.00
18412;DHT22;27097;51.738;19.472;2023-07-22T08:02:59;28.00;53.00
18412;DHT22;27097;51.738;19.472;2023-07-22T08:05:25;28.00;53.10
18412;DHT22;27097;51.738;19.472;2023-07-22T08:07:52;28.00;54.80
18412;DHT22;27097;51.738;19.472;2023-07-22T08:10:20;27.90;54.70
18412;DHT22;27097;51.738;19.472;2023-07-22T08:12:46;27.90;54.60
18412;DHT22;27097;51.738;19.472;2023-07-22T08:15:15;27.90;53.10
18412;DHT22;27097;51.738;19.472;2023-07-22T08:17:42;28.00;53.80
18412;DHT22;27097;51.738;19.472;2023-07-22T08:20:09;28.10;53.40
18412;DHT22;27097;51.738;19.472;2023-07-22T08:22:36;28.10;53.80
18412;DHT22;27097;51.738;19.472;2023-07-22T08:25:04;28.10;53.20
18412;DHT22;27097;51.738;19.472;2023-07-22T08:27:31;28.20;52.70
18412;DHT22;27097;51.738;19.472;2023-07-22T08:29:58;28.20;52.30
18412;DHT22;27097;51.738;19.472;2023-07-22T08:32:26;28.20;52.00
18412;DHT22;27097;51.738;19.472;2023-07-22T08:34:53;28.20;52.20
18412;DHT22;27097;51.738;19.472;2023-07-22T08:37:19;28.10;52.60
18412;DHT22;27097;51.738;19.472;2023-07-22T08:39:46;28.10;52.40
18412;DHT22;27097;51.738;19.472;2023-07-22T08:42:15;28.20;52.30
18412;DHT22;27097;51.738;19.472;2023-07-22T08:44:44;28.10;52.80
18412;DHT22;27097;51.738;19.472;2023-07-22T08:47:16;28.10;52.50
18412;DHT22;27097;51.738;19.472;2023-07-22T08:49:47;28.10;52.40
18412;DHT22;27097;51.738;19.472;2023-07-22T08:52:17;28.10;52.40
18412;DHT22;27097;51.738;19.472;2023-07-22T08:54:44;28.10;52.70
18412;DHT22;27097;51.738;19.472;2023-07-22T08:57:11;28.10;52.70
18412;DHT22;27097;51.738;19.472;2023-07-22T08:59:39;28.10;52.20
18412;DHT22;27097;51.738;19.472;2023-07-22T09:02:08;28.20;52.30
18412;DHT22;27097;51.738;19.472;2023-07-22T09:04:37;28.20;50.80
18412;DHT22;27097;51.738;19.472;2023-07-22T09:07:05;28.30;50.00
18412;DHT22;27097;51.738;19.472;2023-07-22T09:09:33;28.40;49.80
18412;DHT22;27097;51.738;19.472;2023-07-22T09:12:01;28.40;49.00
18412;DHT22;27097;51.738;19.472;2023-07-22T09:14:31;28.50;48.80
18412;DHT22;27097;51.738;19.472;2023-07-22T09:16:58;28.60;49.10
18412;DHT22;27097;51.738;19.472;2023-07-22T09:19:25;28.50;49.00
18412;DHT22;27097;51.738;19.472;2023-07-22T09:21:52;28.60;48.10
18412;DHT22;27097;51.738;19.472;2023-07-22T09:24:25;28.60;48.60
18412;DHT22;27097;51.738;19.472;2023-07-22T09:26:53;28.60;48.70
18412;DHT22;27097;51.738;19.472;2023-07-22T09:29:32;28.60;49.30
18412;DHT22;27097;51.738;19.472;2023-07-22T09:32:00;28.60;50.70
18412;DHT22;27097;51.738;19.472;2023-07-22T09:34:28;28.60;50.10
18412;DHT22;27097;51.738;19.472;2023-07-22T09:36:57;28.60;47.90
18412;DHT22;27097;51.738;19.472;2023-07-22T09:39:27;28.60;48.10
18412;DHT22;27097;51.738;19.472;2023-07-22T09:41:54;28.60;47.00
18412;DHT22;27097;51.738;19.472;2023-07-22T09:44:21;28.60;46.80
18412;DHT22;27097;51.738;19.472;2023-07-22T09:46:48;28.50;48.20
18412;DHT22;27097;51.738;19.472;2023-07-22T09:49:17;28.50;45.90
18412;DHT22;27097;51.738;19.472;2023-07-22T09:51:44;28.60;47.10
18412;DHT22;27097;51.738;19.472;2023-07-22T09:54:11;28.50;46.30
18412;DHT22;27097;51.738;19.472;2023-07-22T09:56:47;28.50;46.70
18412;DHT22;27097;51.738;19.472;2023-07-22T09:59:14;28.40;45.40
18412;DHT22;27097;51.738;19.472;2023-07-22T10:01:42;28.50;46.60
18412;DHT22;27097;51.738;19.472;2023-07-22T10:04:12;28.40;46.20
18412;DHT22;27097;51.738;19.472;2023-07-22T10:06:43;28.40;45.90
18412;DHT22;27097;51.738;19.472;2023-07-22T10:09:11;28.40;45.50
18412;DHT22;27097;51.738;19.472;2023-07-22T10:11:39;28.40;45.30
18412;DHT22;27097;51.738;19.472;2023-07-22T10:14:07;28.50;44.10
18412;DHT22;27097;51.738;19.472;2023-07-22T10:16:34;28.60;43.70
18412;DHT22;27097;51.738;19.472;2023-07-22T10:19:03;28.70;44.00
18412;DHT22;27097;51.738;19.472;2023-07-22T10:21:31;28.70;43.80
18412;DHT22;27097;51.738;19.472;2023-07-22T10:24:00;28.60;43.20
18412;DHT22;27097;51.738;19.472;2023-07-22T10:26:28;28.50;42.90
18412;DHT22;27097;51.738;19.472;2023-07-22T10:28:55;28.50;44.30
18412;DHT22;27097;51.738;19.472;2023-07-22T10:31:24;28.50;43.90
18412;DHT22;27097;51.738;19.472;2023-07-22T10:33:51;28.50;43.90
18412;DHT22;27097;51.738;19.472;2023-07-22T10:36:18;28.50;44.60
18412;DHT22;27097;51.738;19.472;2023-07-22T10:38:55;28.50;44.70
18412;DHT22;27097;51.738;19.472;2023-07-22T10:41:22;28.50;44.50
18412;DHT22;27097;51.738;19.472;2023-07-22T10:43:54;28.40;44.50
18412;DHT22;27097;51.738;19.472;2023-07-22T10:46:33;28.50;43.70
18412;DHT22;27097;51.738;19.472;2023-07-22T10:49:10;28.50;44.50
18412;DHT22;27097;51.738;19.472;2023-07-22T10:51:37;28.50;44.30
18412;DHT22;27097;51.738;19.472;2023-07-22T10:54:11;28.60;45.00
18412;DHT22;27097;51.738;19.472;2023-07-22T10:56:38;28.70;46.10
18412;DHT22;27097;51.738;19.472;2023-07-22T10:59:05;28.80;43.20
18412;DHT22;27097;51.738;19.472;2023-07-22T11:01:37;28.90;43.40
18412;DHT22;27097;51.738;19.472;2023-07-22T11:04:20;28.80;43.70
18412;DHT22;27097;51.738;19.472;2023-07-22T11:06:55;28.70;42.80
18412;DHT22;27097;51.738;19.472;2023-07-22T11:09:38;28.50;43.40
18412;DHT22;27097;51.738;19.472;2023-07-22T11:12:07;28.40;43.60
18412;DHT22;27097;51.738;19.472;2023-07-22T11:14:35;28.30;44.30
18412;DHT22;27097;51.738;19.472;2023-07-22T11:17:06;28.20;44.50
18412;DHT22;27097;51.738;19.472;2023-07-22T11:19:34;28.20;45.20
18412;DHT22;27097;51.738;19.472;2023-07-22T11:22:01;28.40;45.40
18412;DHT22;27097;51.738;19.472;2023-07-22T11:24:28;28.60;43.80
18412;DHT22;27097;51.738;19.472;2023-07-22T11:26:55;28.70;45.00
18412;DHT22;27097;51.738;19.472;2023-07-22T11:29:22;28.70;43.80
18412;DHT22;27097;51.738;19.472;2023-07-22T11:31:50;28.60;44.40
18412;DHT22;27097;51.738;19.472;2023-07-22T11:34:20;28.60;44.00
18412;DHT22;27097;51.738;19.472;2023-07-22T11:36:48;28.50;45.30
18412;DHT22;27097;51.738;19.472;2023-07-22T11:39:17;28.50;44.50
18412;DHT22;27097;51.738;19.472;2023-07-22T11:41:45;28.60;45.20
18412;DHT22;27097;51.738;19.472;2023-07-22T11:44:13;28.70;43.70
18412;DHT22;27097;51.738;19.472;2023-07-22T11:46:48;28.70;43.50
18412;DHT22;27097;51.738;19.472;2023-07-22T11:49:27;28.90;43.70
18412;DHT22;27097;51.738;19.472;2023-07-22T11:51:56;28.80;44.60
18412;DHT22;27097;51.738;19.472;2023-07-22T11:54:23;28.60;45.40
18412;DHT22;27097;51.738;19.472;2023-07-22T11:56:50;28.50;46.70
18412;DHT22;27097;51.738;19.472;2023-07-22T11:59:17;28.30;46.00
18412;DHT22;27097;51.738;19.472;2023-07-22T12:01:45;28.30;46.10
18412;DHT22;27097;51.738;19.472;2023-07-22T12:04:13;28.20;46.60
18412;DHT22;27097;51.738;19.472;2023-07-22T12:06:41;28.20;45.60
18412;DHT22;27097;51.738;19.472;2023-07-22T12:09:09;28.10;45.50
18412;DHT22;27097;51.738;19.472;2023-07-22T12:11:36;28.20;44.40
18412;DHT22;27097;51.738;19.472;2023-07-22T12:14:09;28.30;44.30
18412;DHT22;27097;51.738;19.472;2023-07-22T12:16:37;28.30;44.80
18412;DHT22;27097;51.738;19.472;2023-07-22T12:19:05;28.30;43.50
18412;DHT22;27097;51.738;19.472;2023-07-22T12:21:32;28.30;44.30
18412;DHT22;27097;51.738;19.472;2023-07-22T12:24:00;28.30;44.20
18412;DHT22;27097;51.738;19.472;2023-07-22T12:26:28;28.30;43.60
18412;DHT22;27097;51.738;19.472;2023-07-22T12:28:55;28.30;43.30
18412;DHT22;27097;51.738;19.472;2023-07-22T12:31:22;28.20;43.50
18412;DHT22;27097;51.738;19.472;2023-07-22T12:33:50;28.20;42.60
18412;DHT22;27097;51.738;19.472;2023-07-22T12:36:17;28.20;42.70
18412;DHT22;27097;51.738;19.472;2023-07-22T12:38:43;28.30;42.60
18412;DHT22;27097;51.738;19.472;2023-07-22T12:41:12;28.30;43.00
18412;DHT22;27097;51.738;19.472;2023-07-22T12:43:39;28.30;42.50
18412;DHT22;27097;51.738;19.472;2023-07-22T12:46:06;28.30;41.60
18412;DHT22;27097;51.738;19.472;2023-07-22T12:48:33;28.20;42.20
18412;DHT22;27097;51.738;19.472;2023-07-22T12:51:00;28.20;41.40
18412;DHT22;27097;51.738;19.472;2023-07-22T12:53:27;28.10;43.60
18412;DHT22;27097;51.738;19.472;2023-07-22T12:55:54;28.10;42.40
18412;DHT22;27097;51.738;19.472;2023-07-22T12:58:23;28.10;42.10
18412;DHT22;27097;51.738;19.472;2023-07-22T13:00:49;28.10;42.50
18412;DHT22;27097;51.738;19.472;2023-07-22T13:03:19;28.00;42.00
18412;DHT22;27097;51.738;19.472;2023-07-22T13:05:45;28.00;42.80
18412;DHT22;27097;51.738;19.472;2023-07-22T13:08:12;28.00;41.80
18412;DHT22;27097;51.738;19.472;2023-07-22T13:10:39;27.90;41.50
18412;DHT22;27097;51.738;19.472;2023-07-22T13:13:10;27.90;42.70
18412;DHT22;27097;51.738;19.472;2023-07-22T13:15:38;27.90;42.10
18412;DHT22;27097;51.738;19.472;2023-07-22T13:18:05;27.90;42.40
18412;DHT22;27097;51.738;19.472;2023-07-22T13:20:33;27.90;42.10
18412;DHT22;27097;51.738;19.472;2023-07-22T13:23:00;27.90;42.70
18412;DHT22;27097;51.738;19.472;2023-07-22T13:25:26;27.90;42.70
18412;DHT22;27097;51.738;19.472;2023-07-22T13:27:53;28.00;42.70
18412;DHT22;27097;51.738;19.472;2023-07-22T13:30:20;27.90;42.80
18412;DHT22;27097;51.738;19.472;2023-07-22T13:32:49;27.90;42.70
18412;DHT22;27097;51.738;19.472;2023-07-22T13:35:15;28.00;42.50
18412;DHT22;27097;51.738;19.472;2023-07-22T13:37:42;27.90;42.50
18412;DHT22;27097;51.738;19.472;2023-07-22T13:40:10;27.90;42.40
18412;DHT22;27097;51.738;19.472;2023-07-22T13:42:38;27.90;41.90
18412;DHT22;27097;51.738;19.472;2023-07-22T13:45:06;27.90;42.00
18412;DHT22;27097;51.738;19.472;2023-07-22T13:47:33;28.00;43.00
18412;DHT22;27097;51.738;19.472;2023-07-22T13:50:04;27.90;42.80
18412;DHT22;27097;51.738;19.472;2023-07-22T13:52:31;27.90;42.90
18412;DHT22;27097;51.738;19.472;2023-07-22T13:54:58;27.90;43.60
18412;DHT22;27097;51.738;19.472;2023-07-22T13:57:25;27.90;43.10
18412;DHT22;27097;51.738;19.472;2023-07-22T13:59:52;27.90;44.40
18412;DHT22;27097;51.738;19.472;2023-07-22T14:02:19;27.90;44.50
18412;DHT22;27097;51.738;19.472;2023-07-22T14:04:46;27.90;44.60
18412;DHT22;27097;51.738;19.472;2023-07-22T14:07:14;27.90;44.00
18412;DHT22;27097;51.738;19.472;2023-07-22T14:09:41;27.90;43.90
18412;DHT22;27097;51.738;19.472;2023-07-22T14:12:09;28.00;44.30
18412;DHT22;27097;51.738;19.472;2023-07-22T14:14:36;27.90;44.20
18412;DHT22;27097;51.738;19.472;2023-07-22T14:17:03;27.90;43.70
18412;DHT22;27097;51.738;19.472;2023-07-22T14:19:30;27.90;43.10
18412;DHT22;27097;51.738;19.472;2023-07-22T14:21:57;27.90;44.20
18412;DHT22;27097;51.738;19.472;2023-07-22T14:24:26;27.90;43.50
18412;DHT22;27097;51.738;19.472;2023-07-22T14:26:53;27.90;44.60
18412;DHT22;27097;51.738;19.472;2023-07-22T14:29:20;27.90;44.00
18412;DHT22;27097;51.738;19.472;2023-07-22T14:31:47;27.90;44.20
18412;DHT22;27097;51.738;19.472;2023-07-22T14:34:14;27.90;44.60
18412;DHT22;27097;51.738;19.472;2023-07-22T14:36:42;27.90;43.40
18412;DHT22;27097;51.738;19.472;2023-07-22T14:39:09;28.00;43.00
18412;DHT22;27097;51.738;19.472;2023-07-22T14:41:40;27.90;43.40
18412;DHT22;27097;51.738;19.472;2023-07-22T14:44:07;27.90;44.00
18412;DHT22;27097;51.738;19.472;2023-07-22T14:46:35;27.90;44.70
18412;DHT22;27097;51.738;19.472;2023-07-22T14:49:02;27.90;43.70
18412;DHT22;27097;51.738;19.472;2023-07-22T14:51:29;27.90;44.10
18412;DHT22;27097;51.738;19.472;2023-07-22T14:53:55;27.90;43.90
18412;DHT22;27097;51.738;19.472;2023-07-22T14:56:23;27.90;43.20
18412;DHT22;27097;51.738;19.472;2023-07-22T14:58:51;27.90;43.00
18412;DHT22;27097;51.738;19.472;2023-07-22T15:01:17;27.90;43.30
18412;DHT22;27097;51.738;19.472;2023-07-22T15:03:44;27.90;42.70
18412;DHT22;27097;51.738;19.472;2023-07-22T15:06:11;27.90;42.80
18412;DHT22;27097;51.738;19.472;2023-07-22T15:08:38;27.90;42.60
18412;DHT22;27097;51.738;19.472;2023-07-22T15:11:05;28.00;43.90
18412;DHT22;27097;51.738;19.472;2023-07-22T15:13:33;27.90;43.10
18412;DHT22;27097;51.738;19.472;2023-07-22T15:16:01;27.90;43.60
18412;DHT22;27097;51.738;19.472;2023-07-22T15:18:28;27.90;43.40